sensor_id;sensor_type;location;lat;lon;timestamp;temperature;humidity
33699;DHT22;20032;52.436;13.312;2023-07-31T00:01:19;16.00;99.90
33699;DHT22;20032;52.436;13.312;2023-07-31T00:03:45;16.10;99.90
33699;DHT22;20032;52.436;13.312;2023-07-31T00:06:11;16.20;99.90
33699;DHT22;20032;52.436;13.312;2023-07-31T00:08:37;16.10;99.90
33699;DHT22;20032;52.436;13.312;2023-07-31T00:11:02;16.20;99.90
33699;DHT22;20032;52.436;13.312;2023-07-31T00:13:28;16.10;99.90
33699;DHT22;20032;52.436;13.312;2023-07-31T00:15:53;16.00;99.90
33699;DHT22;20032;52.436;13.312;2023-07-31T00:18:19;16.00;99.90
33699;DHT22;20032;52.436;13.312;2023-07-31T00:20:44;16.00;99.90
33699;DHT22;20032;52.436;13.312;2023-07-31T00:23:10;16.10;99.90
33699;DHT22;20032;52.436;13.312;2023-07-31T00:25:35;16.20;99.90
33699;DHT22;20032;52.436;13.312;2023-07-31T00:28:01;16.20;99.90
33699;DHT22;20032;52.436;13.312;2023-07-31T00:30:26;16.10;99.90
33699;DHT22;20032;52.436;13.312;2023-07-31T00:32:52;15.90;99.90
33699;DHT22;20032;52.436;13.312;2023-07-31T00:35:17;15.90;99.90
33699;DHT22;20032;52.436;13.312;2023-07-31T00:37:43;15.90;99.90
33699;DHT22;20032;52.436;13.312;2023-07-31T00:40:08;15.90;99.90
33699;DHT22;20032;52.436;13.312;2023-07-31T00:42:34;15.90;99.90
33699;DHT22;20032;52.436;13.312;2023-07-31T00:44:59;15.80;99.90
33699;DHT22;20032;52.436;13.312;2023-07-31T00:47:25;15.90;99.90
33699;DHT22;20032;52.436;13.312;2023-07-31T00:49:51;16.00;99.90
33699;DHT22;20032;52.436;13.312;2023-07-31T00:52:17;16.10;99.90
33699;DHT22;20032;52.436;13.312;2023-07-31T00:54:43;16.10;99.90
33699;DHT22;20032;52.436;13.312;2023-07-31T00:57:09;16.10;99.90
33699;DHT22;20032;52.436;13.312;2023-07-31T00:59:34;16.10;99.90
33699;DHT22;20032;52.436;13.312;2023-07-31T01:02:00;16.20;99.90
33699;DHT22;20032;52.436;13.312;2023-07-31T01:04:26;16.20;99.90
33699;DHT22;20032;52.436;13.312;2023-07-31T01:09:40;16.20;99.90
33699;DHT22;20032;52.436;13.312;2023-07-31T01:12:07;16.20;99.90
33699;DHT22;20032;52.436;13.312;2023-07-31T01:14:34;16.30;99.90
33699;DHT22;20032;52.436;13.312;2023-07-31T01:17:00;16.10;99.90
33699;DHT22;20032;52.436;13.312;2023-07-31T01:19:26;16.20;99.90
33699;DHT22;20032;52.436;13.312;2023-07-31T01:25:00;16.10;99.90
33699;DHT22;20032;52.436;13.312;2023-07-31T01:27:29;16.20;99.90
33699;DHT22;20032;52.436;13.312;2023-07-31T01:30:00;16.20;99.90
33699;DHT22;20032;52.436;13.312;2023-07-31T01:32:28;16.20;99.90
33699;DHT22;20032;52.436;13.312;2023-07-31T01:34:55;16.10;99.90
33699;DHT22;20032;52.436;13.312;2023-07-31T01:37:21;16.00;99.90
33699;DHT22;20032;52.436;13.312;2023-07-31T01:39:47;15.90;99.90
33699;DHT22;20032;52.436;13.312;2023-07-31T01:42:12;15.90;99.90
33699;DHT22;20032;52.436;13.312;2023-07-31T01:44:38;15.90;99.90
33699;DHT22;20032;52.436;13.312;2023-07-31T01:47:03;16.00;99.90
33699;DHT22;20032;52.436;13.312;2023-07-31T01:49:29;16.00;99.90
33699;DHT22;20032;52.436;13.312;2023-07-31T01:51:54;16.00;99.90
33699;DHT22;20032;52.436;13.312;2023-07-31T01:54:20;16.00;99.90
33699;DHT22;20032;52.436;13.312;2023-07-31T01:56:45;16.00;99.90
33699;DHT22;20032;52.436;13.312;2023-07-31T01:59:11;16.10;99.90
33699;DHT22;20032;52.436;13.312;2023-07-31T02:01:36;16.10;99.90
33699;DHT22;20032;52.436;13.312;2023-07-31T02:04:01;16.20;99.90
33699;DHT22;20032;52.436;13.312;2023-07-31T02:06:27;16.20;99.90
33699;DHT22;20032;52.436;13.312;2023-07-31T02:08:53;16.10;99.90
33699;DHT22;20032;52.436;13.312;2023-07-31T02:11:18;16.10;99.90
33699;DHT22;20032;52.436;13.312;2023-07-31T02:13:44;16.10;99.90
33699;DHT22;20032;52.436;13.312;2023-07-31T02:16:09;16.00;99.90
33699;DHT22;20032;52.436;13.312;2023-07-31T02:18:35;16.00;99.90
33699;DHT22;20032;52.436;13.312;2023-07-31T02:21:00;16.10;99.90
33699;DHT22;20032;52.436;13.312;2023-07-31T02:23:26;16.10;99.90
33699;DHT22;20032;52.436;13.312;2023-07-31T02:25:51;16.00;99.90
33699;DHT22;20032;52.436;13.312;2023-07-31T02:28:17;16.00;99.90
33699;DHT22;20032;52.436;13.312;2023-07-31T02:30:45;15.90;99.90
33699;DHT22;20032;52.436;13.312;2023-07-31T02:33:11;15.90;99.90
33699;DHT22;20032;52.436;13.312;2023-07-31T02:35:37;15.90;99.90
33699;DHT22;20032;52.436;13.312;2023-07-31T02:38:02;15.90;99.90
33699;DHT22;20032;52.436;13.312;2023-07-31T02:40:28;16.00;99.90
33699;DHT22;20032;52.436;13.312;2023-07-31T02:42:53;15.90;99.90
33699;DHT22;20032;52.436;13.312;2023-07-31T02:45:19;15.90;99.90
33699;DHT22;20032;52.436;13.312;2023-07-31T02:47:44;15.90;99.90
33699;DHT22;20032;52.436;13.312;2023-07-31T02:50:10;15.90;99.90
33699;DHT22;20032;52.436;13.312;2023-07-31T02:52:35;16.00;99.90
33699;DHT22;20032;52.436;13.312;2023-07-31T02:55:01;16.00;99.90
33699;DHT22;20032;52.436;13.312;2023-07-31T02:57:26;16.00;99.90
33699;DHT22;20032;52.436;13.312;2023-07-31T02:59:52;16.00;99.90
33699;DHT22;20032;52.436;13.312;2023-07-31T03:02:17;16.10;99.90
33699;DHT22;20032;52.436;13.312;2023-07-31T03:04:43;16.20;99.90
33699;DHT22;20032;52.436;13.312;2023-07-31T03:07:08;16.20;99.90
33699;DHT22;20032;52.436;13.312;2023-07-31T03:09:33;16.20;99.90
33699;DHT22;20032;52.436;13.312;2023-07-31T03:11:59;16.20;99.90
33699;DHT22;20032;52.436;13.312;2023-07-31T03:14:24;16.10;99.90
33699;DHT22;20032;52.436;13.312;2023-07-31T03:16:52;16.10;99.90
33699;DHT22;20032;52.436;13.312;2023-07-31T03:19:17;16.20;99.90
33699;DHT22;20032;52.436;13.312;2023-07-31T03:21:43;16.20;99.90
33699;DHT22;20032;52.436;13.312;2023-07-31T03:24:08;16.10;99.90
33699;DHT22;20032;52.436;13.312;2023-07-31T03:26:34;16.10;99.90
33699;DHT22;20032;52.436;13.312;2023-07-31T03:29:00;16.20;99.90
33699;DHT22;20032;52.436;13.312;2023-07-31T03:31:25;16.20;99.90
33699;DHT22;20032;52.436;13.312;2023-07-31T03:33:51;16.10;99.90
33699;DHT22;20032;52.436;13.312;2023-07-31T03:36:16;16.10;99.90
33699;DHT22;20032;52.436;13.312;2023-07-31T03:38:42;16.20;99.90
33699;DHT22;20032;52.436;13.312;2023-07-31T03:41:07;16.10;99.90
33699;DHT22;20032;52.436;13.312;2023-07-31T03:43:33;16.20;99.90
33699;DHT22;20032;52.436;13.312;2023-07-31T03:46:00;16.20;99.90
33699;DHT22;20032;52.436;13.312;2023-07-31T03:48:25;16.30;99.90
33699;DHT22;20032;52.436;13.312;2023-07-31T03:50:51;16.20;99.90
33699;DHT22;20032;52.436;13.312;2023-07-31T03:53:16;16.30;99.90
33699;DHT22;20032;52.436;13.312;2023-07-31T03:55:42;16.30;99.90
33699;DHT22;20032;52.436;13.312;2023-07-31T03:58:07;16.40;99.90
33699;DHT22;20032;52.436;13.312;2023-07-31T04:00:33;16.40;99.90
33699;DHT22;20032;52.436;13.312;2023-07-31T04:02:58;16.30;99.90
33699;DHT22;20032;52.436;13.312;2023-07-31T04:05:24;16.20;99.90
33699;DHT22;20032;52.436;13.312;2023-07-31T04:07:49;16.30;99.90
33699;DHT22;20032;52.436;13.312;2023-07-31T04:10:15;16.30;99.90
33699;DHT22;20032;52.436;13.312;2023-07-31T04:12:40;16.30;99.90
33699;DHT22;20032;52.436;13.312;2023-07-31T04:15:06;16.30;99.90
33699;DHT22;20032;52.436;13.312;2023-07-31T04:17:32;16.30;99.90
33699;DHT22;20032;52.436;13.312;2023-07-31T04:19:57;16.20;99.90
33699;DHT22;20032;52.436;13.312;2023-07-31T04:22:23;16.30;99.90
33699;DHT22;20032;52.436;13.312;2023-07-31T04:24:48;16.30;99.90
33699;DHT22;20032;52.436;13.312;2023-07-31T04:27:13;16.30;99.90
33699;DHT22;20032;52.436;13.312;2023-07-31T04:29:39;16.20;99.90
33699;DHT22;20032;52.436;13.312;2023-07-31T04:32:07;16.40;99.90
33699;DHT22;20032;52.436;13.312;2023-07-31T04:34:33;16.40;99.90
33699;DHT22;20032;52.436;13.312;2023-07-31T04:36:58;16.40;99.90
33699;DHT22;20032;52.436;13.312;2023-07-31T04:39:24;16.40;99.90
33699;DHT22;20032;52.436;13.312;2023-07-31T04:41:49;16.40;99.90
33699;DHT22;20032;52.436;13.312;2023-07-31T04:44:15;16.30;99.90
33699;DHT22;20032;52.436;13.312;2023-07-31T04:46:40;16.30;99.90
33699;DHT22;20032;52.436;13.312;2023-07-31T04:49:06;16.20;99.90
33699;DHT22;20032;52.436;13.312;2023-07-31T04:51:31;16.10;99.90
33699;DHT22;20032;52.436;13.312;2023-07-31T04:53:57;16.10;99.90
33699;DHT22;20032;52.436;13.312;2023-07-31T04:56:22;16.20;99.90
33699;DHT22;20032;52.436;13.312;2023-07-31T04:58:48;16.20;99.90
33699;DHT22;20032;52.436;13.312;2023-07-31T05:01:13;16.20;99.90
33699;DHT22;20032;52.436;13.312;2023-07-31T05:03:38;16.20;99.90
33699;DHT22;20032;52.436;13.312;2023-07-31T05:06:04;16.30;99.90
33699;DHT22;20032;52.436;13.312;2023-07-31T05:08:29;16.40;99.90
33699;DHT22;20032;52.436;13.312;2023-07-31T05:10:55;16.50;99.90
33699;DHT22;20032;52.436;13.312;2023-07-31T05:13:20;16.50;99.90
33699;DHT22;20032;52.436;13.312;2023-07-31T05:15:46;16.40;99.90
33699;DHT22;20032;52.436;13.312;2023-07-31T05:18:11;16.50;99.90
33699;DHT22;20032;52.436;13.312;2023-07-31T05:20:37;16.50;99.90
33699;DHT22;20032;52.436;13.312;2023-07-31T05:23:02;16.50;99.90
33699;DHT22;20032;52.436;13.312;2023-07-31T05:25:28;16.50;99.90
33699;DHT22;20032;52.436;13.312;2023-07-31T05:27:53;16.50;99.90
33699;DHT22;20032;52.436;13.312;2023-07-31T05:30:19;16.60;99.90
33699;DHT22;20032;52.436;13.312;2023-07-31T05:32:45;16.70;99.90
33699;DHT22;20032;52.436;13.312;2023-07-31T05:35:10;16.70;99.90
33699;DHT22;20032;52.436;13.312;2023-07-31T05:37:36;16.60;99.90
33699;DHT22;20032;52.436;13.312;2023-07-31T05:40:01;16.70;99.90
33699;DHT22;20032;52.436;13.312;2023-07-31T05:42:27;16.70;99.90
33699;DHT22;20032;52.436;13.312;2023-07-31T05:44:52;16.80;99.90
33699;DHT22;20032;52.436;13.312;2023-07-31T05:47:18;16.70;99.90
33699;DHT22;20032;52.436;13.312;2023-07-31T05:49:44;16.70;99.90
33699;DHT22;20032;52.436;13.312;2023-07-31T05:52:09;16.70;99.90
33699;DHT22;20032;52.436;13.312;2023-07-31T05:54:35;16.60;99.90
33699;DHT22;20032;52.436;13.312;2023-07-31T05:57:00;16.70;99.90
33699;DHT22;20032;52.436;13.312;2023-07-31T05:59:26;16.70;99.90
33699;DHT22;20032;52.436;13.312;2023-07-31T06:01:53;16.70;99.90
33699;DHT22;20032;52.436;13.312;2023-07-31T06:04:18;16.70;99.90
33699;DHT22;20032;52.436;13.312;2023-07-31T06:06:44;16.70;99.90
33699;DHT22;20032;52.436;13.312;2023-07-31T06:09:09;16.80;99.90
33699;DHT22;20032;52.436;13.312;2023-07-31T06:11:35;16.70;99.90
33699;DHT22;20032;52.436;13.312;2023-07-31T06:14:00;16.70;99.90
33699;DHT22;20032;52.436;13.312;2023-07-31T06:16:26;16.70;99.90
33699;DHT22;20032;52.436;13.312;2023-07-31T06:18:52;16.70;99.90
33699;DHT22;20032;52.436;13.312;2023-07-31T06:21:18;16.70;99.90
33699;DHT22;20032;52.436;13.312;2023-07-31T06:23:43;16.80;99.90
33699;DHT22;20032;52.436;13.312;2023-07-31T06:26:09;16.90;99.90
33699;DHT22;20032;52.436;13.312;2023-07-31T06:28:34;16.90;99.90
33699;DHT22;20032;52.436;13.312;2023-07-31T06:31:00;16.90;99.90
33699;DHT22;20032;52.436;13.312;2023-07-31T06:33:26;17.00;99.90
33699;DHT22;20032;52.436;13.312;2023-07-31T06:35:52;16.90;99.90
33699;DHT22;20032;52.436;13.312;2023-07-31T06:38:22;16.90;99.90
33699;DHT22;20032;52.436;13.312;2023-07-31T06:40:49;17.00;99.90
33699;DHT22;20032;52.436;13.312;2023-07-31T06:43:14;16.90;99.90
33699;DHT22;20032;52.436;13.312;2023-07-31T06:45:40;16.90;99.90
33699;DHT22;20032;52.436;13.312;2023-07-31T06:48:05;16.80;99.90
33699;DHT22;20032;52.436;13.312;2023-07-31T06:50:31;16.80;99.90
33699;DHT22;20032;52.436;13.312;2023-07-31T06:52:57;16.90;99.90
33699;DHT22;20032;52.436;13.312;2023-07-31T06:55:23;16.90;99.90
33699;DHT22;20032;52.436;13.312;2023-07-31T06:57:51;17.00;99.90
33699;DHT22;20032;52.436;13.312;2023-07-31T07:00:18;17.00;99.90
33699;DHT22;20032;52.436;13.312;2023-07-31T07:02:44;16.90;99.90
33699;DHT22;20032;52.436;13.312;2023-07-31T07:05:10;16.90;99.90
33699;DHT22;20032;52.436;13.312;2023-07-31T07:07:36;16.80;99.90
33699;DHT22;20032;52.436;13.312;2023-07-31T07:10:02;16.90;99.90
33699;DHT22;20032;52.436;13.312;2023-07-31T07:12:31;16.90;99.90
33699;DHT22;20032;52.436;13.312;2023-07-31T07:14:56;16.90;99.90
33699;DHT22;20032;52.436;13.312;2023-07-31T07:17:23;16.90;99.90
33699;DHT22;20032;52.436;13.312;2023-07-31T07:19:49;16.90;99.90
33699;DHT22;20032;52.436;13.312;2023-07-31T07:22:14;16.80;99.90
33699;DHT22;20032;52.436;13.312;2023-07-31T07:24:40;16.90;99.90
33699;DHT22;20032;52.436;13.312;2023-07-31T07:27:06;17.00;99.90
33699;DHT22;20032;52.436;13.312;2023-07-31T07:29:31;17.00;99.90
33699;DHT22;20032;52.436;13.312;2023-07-31T07:31:57;17.00;99.90
33699;DHT22;20032;52.436;13.312;2023-07-31T07:34:25;17.00;99.90
33699;DHT22;20032;52.436;13.312;2023-07-31T07:36:50;17.10;99.90
33699;DHT22;20032;52.436;13.312;2023-07-31T07:39:15;17.10;99.90
33699;DHT22;20032;52.436;13.312;2023-07-31T07:41:41;17.00;99.90
33699;DHT22;20032;52.436;13.312;2023-07-31T07:44:07;17.10;99.90
33699;DHT22;20032;52.436;13.312;2023-07-31T07:46:33;17.20;99.90
33699;DHT22;20032;52.436;13.312;2023-07-31T07:48:58;17.20;99.90
33699;DHT22;20032;52.436;13.312;2023-07-31T07:51:24;17.40;99.90
33699;DHT22;20032;52.436;13.312;2023-07-31T07:53:49;17.30;99.90
33699;DHT22;20032;52.436;13.312;2023-07-31T07:56:15;17.30;99.90
33699;DHT22;20032;52.436;13.312;2023-07-31T07:58:40;17.30;99.90
33699;DHT22;20032;52.436;13.312;2023-07-31T08:01:06;17.30;99.90
33699;DHT22;20032;52.436;13.312;2023-07-31T08:03:31;17.20;99.90
33699;DHT22;20032;52.436;13.312;2023-07-31T08:06:00;17.30;99.90
33699;DHT22;20032;52.436;13.312;2023-07-31T08:08:27;17.20;99.90
33699;DHT22;20032;52.436;13.312;2023-07-31T08:10:53;17.20;99.90
33699;DHT22;20032;52.436;13.312;2023-07-31T08:13:19;17.20;99.90
33699;DHT22;20032;52.436;13.312;2023-07-31T08:15:44;17.10;99.90
33699;DHT22;20032;52.436;13.312;2023-07-31T08:18:10;17.00;99.90
33699;DHT22;20032;52.436;13.312;2023-07-31T08:20:37;17.10;99.90
33699;DHT22;20032;52.436;13.312;2023-07-31T08:23:03;17.10;99.90
33699;DHT22;20032;52.436;13.312;2023-07-31T08:25:29;17.00;99.90
33699;DHT22;20032;52.436;13.312;2023-07-31T08:27:54;17.00;99.90
33699;DHT22;20032;52.436;13.312;2023-07-31T08:30:21;17.10;99.90
33699;DHT22;20032;52.436;13.312;2023-07-31T08:32:46;17.20;99.90
33699;DHT22;20032;52.436;13.312;2023-07-31T08:35:12;17.20;99.90
33699;DHT22;20032;52.436;13.312;2023-07-31T08:37:38;17.30;99.90
33699;DHT22;20032;52.436;13.312;2023-07-31T08:40:04;17.40;99.90
33699;DHT22;20032;52.436;13.312;2023-07-31T08:42:30;17.50;99.90
33699;DHT22;20032;52.436;13.312;2023-07-31T08:44:56;17.60;99.90
33699;DHT22;20032;52.436;13.312;2023-07-31T08:47:23;17.60;99.90
33699;DHT22;20032;52.436;13.312;2023-07-31T08:49:49;17.50;99.90
33699;DHT22;20032;52.436;13.312;2023-07-31T08:52:16;17.50;99.90
33699;DHT22;20032;52.436;13.312;2023-07-31T08:54:41;17.50;99.90
33699;DHT22;20032;52.436;13.312;2023-07-31T08:57:07;17.50;99.90
33699;DHT22;20032;52.436;13.312;2023-07-31T08:59:34;17.50;99.90
33699;DHT22;20032;52.436;13.312;2023-07-31T09:02:06;17.60;99.90
33699;DHT22;20032;52.436;13.312;2023-07-31T09:04:33;17.60;99.90
33699;DHT22;20032;52.436;13.312;2023-07-31T09:07:02;17.70;99.90
33699;DHT22;20032;52.436;13.312;2023-07-31T09:09:30;17.70;99.90
33699;DHT22;20032;52.436;13.312;2023-07-31T09:11:56;17.80;99.90
33699;DHT22;20032;52.436;13.312;2023-07-31T09:14:22;17.90;99.90
33699;DHT22;20032;52.436;13.312;2023-07-31T09:16:55;18.00;99.90
33699;DHT22;20032;52.436;13.312;2023-07-31T09:19:29;17.90;99.90
33699;DHT22;20032;52.436;13.312;2023-07-31T09:21:55;17.90;99.90
33699;DHT22;20032;52.436;13.312;2023-07-31T09:24:35;17.90;99.90
33699;DHT22;20032;52.436;13.312;2023-07-31T09:27:01;17.70;99.90
33699;DHT22;20032;52.436;13.312;2023-07-31T09:29:28;17.70;99.90
33699;DHT22;20032;52.436;13.312;2023-07-31T09:31:54;17.60;99.90
33699;DHT22;20032;52.436;13.312;2023-07-31T09:34:27;17.70;99.90
33699;DHT22;20032;52.436;13.312;2023-07-31T09:36:53;17.70;99.90
33699;DHT22;20032;52.436;13.312;2023-07-31T09:39:19;17.60;99.90
33699;DHT22;20032;52.436;13.312;2023-07-31T09:41:53;17.70;99.90
33699;DHT22;20032;52.436;13.312;2023-07-31T09:44:19;17.80;99.90
33699;DHT22;20032;52.436;13.312;2023-07-31T09:46:44;17.70;99.90
33699;DHT22;20032;52.436;13.312;2023-07-31T09:49:12;17.80;99.90
33699;DHT22;20032;52.436;13.312;2023-07-31T09:51:38;17.80;99.90
33699;DHT22;20032;52.436;13.312;2023-07-31T09:54:12;17.80;99.90
33699;DHT22;20032;52.436;13.312;2023-07-31T09:56:45;17.70;99.90
33699;DHT22;20032;52.436;13.312;2023-07-31T09:59:13;17.70;99.90
33699;DHT22;20032;52.436;13.312;2023-07-31T10:01:41;17.80;99.90
33699;DHT22;20032;52.436;13.312;2023-07-31T10:04:09;17.80;99.90
33699;DHT22;20032;52.436;13.312;2023-07-31T10:06:36;17.80;99.90
33699;DHT22;20032;52.436;13.312;2023-07-31T10:09:06;17.90;99.90
33699;DHT22;20032;52.436;13.312;2023-07-31T10:11:34;18.00;99.90
33699;DHT22;20032;52.436;13.312;2023-07-31T10:14:02;18.00;99.90
33699;DHT22;20032;52.436;13.312;2023-07-31T10:16:28;18.10;99.90
33699;DHT22;20032;52.436;13.312;2023-07-31T10:18:55;18.00;99.90
33699;DHT22;20032;52.436;13.312;2023-07-31T10:21:20;18.10;99.90
33699;DHT22;20032;52.436;13.312;2023-07-31T10:23:46;18.20;99.90
33699;DHT22;20032;52.436;13.312;2023-07-31T10:26:13;18.20;99.90
33699;DHT22;20032;52.436;13.312;2023-07-31T10:28:40;18.30;99.90
33699;DHT22;20032;52.436;13.312;2023-07-31T10:31:06;18.50;99.90
33699;DHT22;20032;52.436;13.312;2023-07-31T10:33:32;18.50;99.90
33699;DHT22;20032;52.436;13.312;2023-07-31T10:36:16;18.60;99.90
33699;DHT22;20032;52.436;13.312;2023-07-31T10:38:42;18.80;99.90
33699;DHT22;20032;52.436;13.312;2023-07-31T10:41:09;19.10;99.90
33699;DHT22;20032;52.436;13.312;2023-07-31T10:43:37;19.40;99.90
33699;DHT22;20032;52.436;13.312;2023-07-31T10:46:07;19.70;99.90
33699;DHT22;20032;52.436;13.312;2023-07-31T10:48:34;20.10;99.90
33699;DHT22;20032;52.436;13.312;2023-07-31T10:50:59;20.50;99.90
33699;DHT22;20032;52.436;13.312;2023-07-31T10:53:31;20.80;99.90
33699;DHT22;20032;52.436;13.312;2023-07-31T10:55:58;21.10;99.90
33699;DHT22;20032;52.436;13.312;2023-07-31T10:58:24;21.40;99.90
33699;DHT22;20032;52.436;13.312;2023-07-31T11:00:55;21.60;99.90
33699;DHT22;20032;52.436;13.312;2023-07-31T11:03:25;21.70;99.90
33699;DHT22;20032;52.436;13.312;2023-07-31T11:05:52;21.90;99.90
33699;DHT22;20032;52.436;13.312;2023-07-31T11:08:23;21.70;99.90
33699;DHT22;20032;52.436;13.312;2023-07-31T11:11:05;21.50;99.90
33699;DHT22;20032;52.436;13.312;2023-07-31T11:13:32;21.20;99.90
33699;DHT22;20032;52.436;13.312;2023-07-31T11:15:59;21.00;99.90
33699;DHT22;20032;52.436;13.312;2023-07-31T11:18:26;20.90;99.90
33699;DHT22;20032;52.436;13.312;2023-07-31T11:20:52;20.90;99.90
33699;DHT22;20032;52.436;13.312;2023-07-31T11:23:19;20.80;99.90
33699;DHT22;20032;52.436;13.312;2023-07-31T11:25:45;20.80;99.90
33699;DHT22;20032;52.436;13.312;2023-07-31T11:28:12;21.00;99.90
33699;DHT22;20032;52.436;13.312;2023-07-31T11:30:38;21.00;99.90
33699;DHT22;20032;52.436;13.312;2023-07-31T11:33:06;20.80;99.90
33699;DHT22;20032;52.436;13.312;2023-07-31T11:35:32;20.90;99.90
33699;DHT22;20032;52.436;13.312;2023-07-31T11:37:58;20.90;99.90
33699;DHT22;20032;52.436;13.312;2023-07-31T11:40:24;20.80;99.90
33699;DHT22;20032;52.436;13.312;2023-07-31T11:42:56;20.70;99.90
33699;DHT22;20032;52.436;13.312;2023-07-31T11:45:25;20.60;99.90
33699;DHT22;20032;52.436;13.312;2023-07-31T11:47:51;20.60;99.90
33699;DHT22;20032;52.436;13.312;2023-07-31T11:50:17;20.70;99.90
33699;DHT22;20032;52.436;13.312;2023-07-31T11:52:44;20.70;99.90
33699;DHT22;20032;52.436;13.312;2023-07-31T11:55:11;20.70;99.90
33699;DHT22;20032;52.436;13.312;2023-07-31T11:57:39;20.60;99.90
33699;DHT22;20032;52.436;13.312;2023-07-31T12:00:07;20.50;99.90
33699;DHT22;20032;52.436;13.312;2023-07-31T12:02:34;20.40;99.90
33699;DHT22;20032;52.436;13.312;2023-07-31T12:05:00;20.50;99.90
33699;DHT22;20032;52.436;13.312;2023-07-31T12:07:26;20.50;99.90
33699;DHT22;20032;52.436;13.312;2023-07-31T12:09:53;20.60;99.90
33699;DHT22;20032;52.436;13.312;2023-07-31T12:12:21;20.60;99.90
33699;DHT22;20032;52.436;13.312;2023-07-31T12:14:47;20.60;99.90
33699;DHT22;20032;52.436;13.312;2023-07-31T12:17:14;20.70;99.90
33699;DHT22;20032;52.436;13.312;2023-07-31T12:19:39;20.70;99.90
33699;DHT22;20032;52.436;13.312;2023-07-31T12:22:20;20.80;99.90
33699;DHT22;20032;52.436;13.312;2023-07-31T12:24:46;20.70;99.90
33699;DHT22;20032;52.436;13.312;2023-07-31T12:27:13;20.70;99.90
33699;DHT22;20032;52.436;13.312;2023-07-31T12:29:39;20.60;99.90
33699;DHT22;20032;52.436;13.312;2023-07-31T12:32:20;20.70;99.90
33699;DHT22;20032;52.436;13.312;2023-07-31T12:34:45;20.60;99.90
33699;DHT22;20032;52.436;13.312;2023-07-31T12:37:11;20.70;99.90
33699;DHT22;20032;52.436;13.312;2023-07-31T12:39:36;20.80;99.90
33699;DHT22;20032;52.436;13.312;2023-07-31T12:42:02;21.10;99.90
33699;DHT22;20032;52.436;13.312;2023-07-31T12:44:27;21.50;99.90
33699;DHT22;20032;52.436;13.312;2023-07-31T12:46:53;21.70;99.90
33699;DHT22;20032;52.436;13.312;2023-07-31T12:49:18;21.60;99.90
33699;DHT22;20032;52.436;13.312;2023-07-31T12:51:44;21.70;99.90
33699;DHT22;20032;52.436;13.312;2023-07-31T12:54:09;21.80;99.90
33699;DHT22;20032;52.436;13.312;2023-07-31T12:56:35;21.70;99.90
33699;DHT22;20032;52.436;13.312;2023-07-31T12:59:00;21.60;99.90
33699;DHT22;20032;52.436;13.312;2023-07-31T13:01:25;21.50;99.90
33699;DHT22;20032;52.436;13.312;2023-07-31T13:03:51;21.70;99.90
33699;DHT22;20032;52.436;13.312;2023-07-31T13:06:17;21.60;99.90
33699;DHT22;20032;52.436;13.312;2023-07-31T13:08:42;21.30;99.90
33699;DHT22;20032;52.436;13.312;2023-07-31T13:11:08;21.10;99.90
33699;DHT22;20032;52.436;13.312;2023-07-31T13:13:33;21.00;99.90
33699;DHT22;20032;52.436;13.312;2023-07-31T13:15:59;21.00;99.90
33699;DHT22;20032;52.436;13.312;2023-07-31T13:18:24;21.00;99.90
33699;DHT22;20032;52.436;13.312;2023-07-31T13:20:50;20.90;99.90
33699;DHT22;20032;52.436;13.312;2023-07-31T13:23:15;20.80;99.90
33699;DHT22;20032;52.436;13.312;2023-07-31T13:25:41;20.80;99.90
33699;DHT22;20032;52.436;13.312;2023-07-31T13:28:06;20.90;99.90
33699;DHT22;20032;52.436;13.312;2023-07-31T13:30:32;21.10;99.90
33699;DHT22;20032;52.436;13.312;2023-07-31T13:32:58;21.60;99.90
33699;DHT22;20032;52.436;13.312;2023-07-31T13:35:24;22.00;99.90
33699;DHT22;20032;52.436;13.312;2023-07-31T13:37:49;22.10;99.90
33699;DHT22;20032;52.436;13.312;2023-07-31T13:40:14;22.20;99.90
33699;DHT22;20032;52.436;13.312;2023-07-31T13:42:40;22.10;99.90
33699;DHT22;20032;52.436;13.312;2023-07-31T13:45:06;22.20;99.90
33699;DHT22;20032;52.436;13.312;2023-07-31T13:47:31;22.10;99.90
33699;DHT22;20032;52.436;13.312;2023-07-31T13:49:57;21.90;99.90
33699;DHT22;20032;52.436;13.312;2023-07-31T13:52:22;21.80;99.90
33699;DHT22;20032;52.436;13.312;2023-07-31T13:54:48;21.70;99.90
33699;DHT22;20032;52.436;13.312;2023-07-31T13:57:13;21.60;99.90
33699;DHT22;20032;52.436;13.312;2023-07-31T13:59:39;21.60;99.90
33699;DHT22;20032;52.436;13.312;2023-07-31T14:02:04;21.60;99.90
33699;DHT22;20032;52.436;13.312;2023-07-31T14:04:30;21.50;99.90
33699;DHT22;20032;52.436;13.312;2023-07-31T14:06:56;21.40;99.90
33699;DHT22;20032;52.436;13.312;2023-07-31T14:09:22;21.50;99.90
33699;DHT22;20032;52.436;13.312;2023-07-31T14:11:47;21.50;99.90
33699;DHT22;20032;52.436;13.312;2023-07-31T14:14:13;21.50;99.90
33699;DHT22;20032;52.436;13.312;2023-07-31T14:16:39;21.60;99.90
33699;DHT22;20032;52.436;13.312;2023-07-31T14:19:04;21.50;99.90
33699;DHT22;20032;52.436;13.312;2023-07-31T14:21:30;21.40;99.90
33699;DHT22;20032;52.436;13.312;2023-07-31T14:23:55;21.40;99.90
33699;DHT22;20032;52.436;13.312;2023-07-31T14:26:21;21.40;99.90
33699;DHT22;20032;52.436;13.312;2023-07-31T14:28:46;21.30;99.90
33699;DHT22;20032;52.436;13.312;2023-07-31T14:31:12;21.40;99.90
33699;DHT22;20032;52.436;13.312;2023-07-31T14:33:37;21.40;99.90
33699;DHT22;20032;52.436;13.312;2023-07-31T14:36:03;21.50;99.90
33699;DHT22;20032;52.436;13.312;2023-07-31T14:38:28;21.50;99.90
33699;DHT22;20032;52.436;13.312;2023-07-31T14:40:54;21.60;99.90
33699;DHT22;20032;52.436;13.312;2023-07-31T14:43:19;21.60;99.90
33699;DHT22;20032;52.436;13.312;2023-07-31T14:45:45;21.50;99.90
33699;DHT22;20032;52.436;13.312;2023-07-31T14:48:12;21.50;99.90
33699;DHT22;20032;52.436;13.312;2023-07-31T14:50:37;21.40;99.90
33699;DHT22;20032;52.436;13.312;2023-07-31T14:53:03;21.40;99.90
33699;DHT22;20032;52.436;13.312;2023-07-31T14:55:28;21.40;99.90
33699;DHT22;20032;52.436;13.312;2023-07-31T14:57:54;21.30;99.90
33699;DHT22;20032;52.436;13.312;2023-07-31T15:00:19;21.30;99.90
33699;DHT22;20032;52.436;13.312;2023-07-31T15:02:45;21.30;99.90
33699;DHT22;20032;52.436;13.312;2023-07-31T15:05:10;21.30;99.90
33699;DHT22;20032;52.436;13.312;2023-07-31T15:07:36;21.30;99.90
33699;DHT22;20032;52.436;13.312;2023-07-31T15:10:02;21.20;99.90
33699;DHT22;20032;52.436;13.312;2023-07-31T15:12:28;21.20;99.90
33699;DHT22;20032;52.436;13.312;2023-07-31T15:14:54;21.20;99.90